sensor_id;sensor_type;location;lat;lon;timestamp;P1;durP1;ratioP1;P2;durP2;ratioP2
47401;SDS011;33155;48.370;-3.750;2022-09-03T06:02:51;5.72;;;4.50;;
47401;SDS011;33155;48.370;-3.750;2022-09-03T06:05:17;6.93;;;4.93;;
47401;SDS011;33155;48.370;-3.750;2022-09-03T06:07:43;5.78;;;4.88;;
47401;SDS011;33155;48.370;-3.750;2022-09-03T06:10:14;5.15;;;3.97;;
47401;SDS011;33155;48.370;-3.750;2022-09-03T06:12:40;6.00;;;4.47;;
47401;SDS011;33155;48.370;-3.750;2022-09-03T06:15:06;4.97;;;4.00;;
47401;SDS011;33155;48.370;-3.750;2022-09-03T06:17:33;4.90;;;4.18;;
47401;SDS011;33155;48.370;-3.750;2022-09-03T06:19:58;6.78;;;5.28;;
47401;SDS011;33155;48.370;-3.750;2022-09-03T06:22:24;4.97;;;4.30;;
47401;SDS011;33155;48.370;-3.750;2022-09-03T06:24:52;5.47;;;4.32;;
47401;SDS011;33155;48.370;-3.750;2022-09-03T06:27:18;5.07;;;4.28;;
47401;SDS011;33155;48.370;-3.750;2022-09-03T06:29:45;5.90;;;4.70;;
47401;SDS011;33155;48.370;-3.750;2022-09-03T06:32:10;4.72;;;4.10;;
47401;SDS011;33155;48.370;-3.750;2022-09-03T06:34:36;5.15;;;4.15;;
47401;SDS011;33155;48.370;-3.750;2022-09-03T06:37:01;5.50;;;4.50;;
47401;SDS011;33155;48.370;-3.750;2022-09-03T06:39:27;6.50;;;5.20;;
47401;SDS011;33155;48.370;-3.750;2022-09-03T06:41:52;11.32;;;6.90;;
47401;SDS011;33155;48.370;-3.750;2022-09-03T06:44:19;7.05;;;5.05;;
47401;SDS011;33155;48.370;-3.750;2022-09-03T06:46:44;6.50;;;5.47;;
47401;SDS011;33155;48.370;-3.750;2022-09-03T06:49:11;6.07;;;4.70;;
47401;SDS011;33155;48.370;-3.750;2022-09-03T06:51:37;5.95;;;4.65;;
47401;SDS011;33155;48.370;-3.750;2022-09-03T06:54:07;5.15;;;4.22;;
47401;SDS011;33155;48.370;-3.750;2022-09-03T06:56:35;4.35;;;3.50;;
47401;SDS011;33155;48.370;-3.750;2022-09-03T06:59:05;6.22;;;4.93;;
47401;SDS011;33155;48.370;-3.750;2022-09-03T07:01:35;6.47;;;5.18;;
47401;SDS011;33155;48.370;-3.750;2022-09-03T07:04:04;5.38;;;4.85;;
47401;SDS011;33155;48.370;-3.750;2022-09-03T07:06:30;7.65;;;6.68;;
47401;SDS011;33155;48.370;-3.750;2022-09-03T07:08:57;10.23;;;6.93;;
47401;SDS011;33155;48.370;-3.750;2022-09-03T07:11:24;7.45;;;6.63;;
47401;SDS011;33155;48.370;-3.750;2022-09-03T07:13:52;7.07;;;5.68;;
47401;SDS011;33155;48.370;-3.750;2022-09-03T07:16:20;6.43;;;5.30;;
47401;SDS011;33155;48.370;-3.750;2022-09-03T07:18:47;5.90;;;4.70;;
47401;SDS011;33155;48.370;-3.750;2022-09-03T07:21:14;5.85;;;4.65;;
47401;SDS011;33155;48.370;-3.750;2022-09-03T07:23:40;7.35;;;4.40;;
47401;SDS011;33155;48.370;-3.750;2022-09-03T07:26:10;7.50;;;4.88;;
47401;SDS011;33155;48.370;-3.750;2022-09-03T07:28:38;5.53;;;4.22;;
47401;SDS011;33155;48.370;-3.750;2022-09-03T07:33:35;5.07;;;4.20;;
47401;SDS011;33155;48.370;-3.750;2022-09-03T07:36:03;5.32;;;3.92;;
47401;SDS011;33155;48.370;-3.750;2022-09-03T07:38:35;6.47;;;3.90;;
47401;SDS011;33155;48.370;-3.750;2022-09-03T07:41:02;4.00;;;3.53;;
47401;SDS011;33155;48.370;-3.750;2022-09-03T07:43:32;6.50;;;3.63;;
47401;SDS011;33155;48.370;-3.750;2022-09-03T07:45:59;4.03;;;3.28;;
47401;SDS011;33155;48.370;-3.750;2022-09-03T07:48:25;3.13;;;2.80;;
47401;SDS011;33155;48.370;-3.750;2022-09-03T07:50:51;4.70;;;3.60;;
47401;SDS011;33155;48.370;-3.750;2022-09-03T07:53:17;3.67;;;2.60;;
47401;SDS011;33155;48.370;-3.750;2022-09-03T07:55:45;4.20;;;2.97;;
47401;SDS011;33155;48.370;-3.750;2022-09-03T07:58:12;4.18;;;2.40;;
47401;SDS011;33155;48.370;-3.750;2022-09-03T08:00:38;4.07;;;3.03;;
47401;SDS011;33155;48.370;-3.750;2022-09-03T08:03:04;6.30;;;2.92;;
47401;SDS011;33155;48.370;-3.750;2022-09-03T08:05:33;5.53;;;3.28;;
47401;SDS011;33155;48.370;-3.750;2022-09-03T08:08:00;3.63;;;3.05;;
47401;SDS011;33155;48.370;-3.750;2022-09-03T08:10:27;5.55;;;2.90;;
47401;SDS011;33155;48.370;-3.750;2022-09-03T08:12:54;5.75;;;2.97;;
47401;SDS011;33155;48.370;-3.750;2022-09-03T08:15:20;5.05;;;2.65;;
47401;SDS011;33155;48.370;-3.750;2022-09-03T08:17:46;6.45;;;3.00;;
47401;SDS011;33155;48.370;-3.750;2022-09-03T08:20:11;4.13;;;2.65;;
47401;SDS011;33155;48.370;-3.750;2022-09-03T08:22:37;6.72;;;3.22;;
47401;SDS011;33155;48.370;-3.750;2022-09-03T08:25:02;5.53;;;3.35;;
47401;SDS011;33155;48.370;-3.750;2022-09-03T08:27:28;4.20;;;2.95;;
47401;SDS011;33155;48.370;-3.750;2022-09-03T08:29:54;4.13;;;2.75;;
47401;SDS011;33155;48.370;-3.750;2022-09-03T08:32:19;4.97;;;2.55;;
47401;SDS011;33155;48.370;-3.750;2022-09-03T08:34:45;3.65;;;2.60;;
47401;SDS011;33155;48.370;-3.750;2022-09-03T08:37:11;4.47;;;2.30;;
47401;SDS011;33155;48.370;-3.750;2022-09-03T08:39:37;4.28;;;2.67;;
47401;SDS011;33155;48.370;-3.750;2022-09-03T08:44:30;3.50;;;2.20;;
47401;SDS011;33155;48.370;-3.750;2022-09-03T08:47:05;3.03;;;2.35;;
47401;SDS011;33155;48.370;-3.750;2022-09-03T08:54:47;4.68;;;2.50;;
47401;SDS011;33155;48.370;-3.750;2022-09-03T08:57:13;3.60;;;2.00;;
47401;SDS011;33155;48.370;-3.750;2022-09-03T08:59:40;4.55;;;2.30;;
47401;SDS011;33155;48.370;-3.750;2022-09-03T09:13:28;5.18;;;2.00;;
47401;SDS011;33155;48.370;-3.750;2022-09-03T09:16:09;4.10;;;2.13;;
47401;SDS011;33155;48.370;-3.750;2022-09-03T09:21:30;4.47;;;1.55;;
47401;SDS011;33155;48.370;-3.750;2022-09-03T09:24:03;3.97;;;1.38;;
47401;SDS011;33155;48.370;-3.750;2022-09-03T09:26:31;3.00;;;1.50;;
47401;SDS011;33155;48.370;-3.750;2022-09-03T09:29:01;3.65;;;1.70;;
47401;SDS011;33155;48.370;-3.750;2022-09-03T09:31:30;4.80;;;1.60;;
47401;SDS011;33155;48.370;-3.750;2022-09-03T09:34:03;2.95;;;1.80;;
47401;SDS011;33155;48.370;-3.750;2022-09-03T09:36:31;2.58;;;1.50;;
47401;SDS011;33155;48.370;-3.750;2022-09-03T09:39:09;2.90;;;1.60;;
47401;SDS011;33155;48.370;-3.750;2022-09-03T09:41:35;2.72;;;1.80;;
47401;SDS011;33155;48.370;-3.750;2022-09-03T09:44:01;2.30;;;1.50;;
47401;SDS011;33155;48.370;-3.750;2022-09-03T09:49:06;1.73;;;1.13;;
47401;SDS011;33155;48.370;-3.750;2022-09-03T09:51:43;3.10;;;1.33;;
47401;SDS011;33155;48.370;-3.750;2022-09-03T09:54:12;3.75;;;1.48;;
47401;SDS011;33155;48.370;-3.750;2022-09-03T09:56:41;3.13;;;1.30;;
47401;SDS011;33155;48.370;-3.750;2022-09-03T09:59:09;2.42;;;1.38;;
47401;SDS011;33155;48.370;-3.750;2022-09-03T10:01:37;2.78;;;1.63;;
47401;SDS011;33155;48.370;-3.750;2022-09-03T10:04:22;2.55;;;1.48;;
47401;SDS011;33155;48.370;-3.750;2022-09-03T10:06:57;3.22;;;1.30;;
47401;SDS011;33155;48.370;-3.750;2022-09-03T10:09:30;2.08;;;1.23;;
47401;SDS011;33155;48.370;-3.750;2022-09-03T10:12:13;2.63;;;1.42;;
47401;SDS011;33155;48.370;-3.750;2022-09-03T10:14:45;2.10;;;1.40;;
47401;SDS011;33155;48.370;-3.750;2022-09-03T10:17:18;3.83;;;1.50;;
47401;SDS011;33155;48.370;-3.750;2022-09-03T10:19:52;4.13;;;1.40;;
47401;SDS011;33155;48.370;-3.750;2022-09-03T10:22:43;3.00;;;1.65;;
47401;SDS011;33155;48.370;-3.750;2022-09-03T10:25:12;3.90;;;1.42;;
47401;SDS011;33155;48.370;-3.750;2022-09-03T10:27:40;2.15;;;1.40;;
47401;SDS011;33155;48.370;-3.750;2022-09-03T10:30:10;2.28;;;1.20;;
47401;SDS011;33155;48.370;-3.750;2022-09-03T10:36:23;3.92;;;1.55;;
47401;SDS011;33155;48.370;-3.750;2022-09-03T10:44:56;4.18;;;1.42;;
47401;SDS011;33155;48.370;-3.750;2022-09-03T10:50:46;6.55;;;1.20;;
47401;SDS011;33155;48.370;-3.750;2022-09-03T11:07:38;3.30;;;1.42;;
47401;SDS011;33155;48.370;-3.750;2022-09-03T11:18:03;1.63;;;1.20;;
47401;SDS011;33155;48.370;-3.750;2022-09-03T11:20:49;2.72;;;1.52;;
47401;SDS011;33155;48.370;-3.750;2022-09-03T11:23:17;3.35;;;1.63;;
47401;SDS011;33155;48.370;-3.750;2022-09-03T11:25:46;3.88;;;1.55;;
47401;SDS011;33155;48.370;-3.750;2022-09-03T11:28:26;3.03;;;1.50;;
47401;SDS011;33155;48.370;-3.750;2022-09-03T11:31:20;2.88;;;1.42;;
47401;SDS011;33155;48.370;-3.750;2022-09-03T11:33:52;3.28;;;1.55;;
47401;SDS011;33155;48.370;-3.750;2022-09-03T11:36:26;4.22;;;1.55;;
47401;SDS011;33155;48.370;-3.750;2022-09-03T11:38:54;4.95;;;1.55;;
47401;SDS011;33155;48.370;-3.750;2022-09-03T11:41:37;3.95;;;1.45;;
47401;SDS011;33155;48.370;-3.750;2022-09-03T11:44:10;1.80;;;1.10;;
47401;SDS011;33155;48.370;-3.750;2022-09-03T11:46:55;2.47;;;1.45;;
47401;SDS011;33155;48.370;-3.750;2022-09-03T11:49:29;5.88;;;1.65;;
47401;SDS011;33155;48.370;-3.750;2022-09-03T11:51:59;3.85;;;1.70;;
47401;SDS011;33155;48.370;-3.750;2022-09-03T11:54:26;3.78;;;1.60;;
47401;SDS011;33155;48.370;-3.750;2022-09-03T11:57:08;1.95;;;1.25;;
47401;SDS011;33155;48.370;-3.750;2022-09-03T11:59:40;2.17;;;1.15;;
47401;SDS011;33155;48.370;-3.750;2022-09-03T12:05:03;2.65;;;1.30;;
47401;SDS011;33155;48.370;-3.750;2022-09-03T12:23:33;3.05;;;1.45;;
47401;SDS011;33155;48.370;-3.750;2022-09-03T12:26:07;2.90;;;1.17;;
47401;SDS011;33155;48.370;-3.750;2022-09-03T12:28:38;2.88;;;1.60;;
47401;SDS011;33155;48.370;-3.750;2022-09-03T12:31:06;3.60;;;1.27;;
47401;SDS011;33155;48.370;-3.750;2022-09-03T12:33:45;3.78;;;1.50;;
47401;SDS011;33155;48.370;-3.750;2022-09-03T12:36:12;3.60;;;1.42;;
47401;SDS011;33155;48.370;-3.750;2022-09-03T12:38:37;4.45;;;1.50;;
47401;SDS011;33155;48.370;-3.750;2022-09-03T12:41:03;3.95;;;1.20;;
47401;SDS011;33155;48.370;-3.750;2022-09-03T12:43:29;1.10;;;1.00;;
47401;SDS011;33155;48.370;-3.750;2022-09-03T12:45:54;2.22;;;1.30;;
47401;SDS011;33155;48.370;-3.750;2022-09-03T12:48:20;3.33;;;1.70;;
47401;SDS011;33155;48.370;-3.750;2022-09-03T12:50:47;3.55;;;1.40;;
47401;SDS011;33155;48.370;-3.750;2022-09-03T12:53:20;3.05;;;1.20;;
47401;SDS011;33155;48.370;-3.750;2022-09-03T12:55:52;4.32;;;1.55;;
47401;SDS011;33155;48.370;-3.750;2022-09-03T13:06:18;2.47;;;1.30;;
47401;SDS011;33155;48.370;-3.750;2022-09-03T13:08:53;2.67;;;1.35;;
47401;SDS011;33155;48.370;-3.750;2022-09-03T13:11:31;2.65;;;1.50;;
47401;SDS011;33155;48.370;-3.750;2022-09-03T13:14:01;1.90;;;0.93;;
47401;SDS011;33155;48.370;-3.750;2022-09-03T13:21:52;3.15;;;1.08;;
47401;SDS011;33155;48.370;-3.750;2022-09-03T13:33:48;2.08;;;1.20;;
47401;SDS011;33155;48.370;-3.750;2022-09-03T13:38:55;3.65;;;1.20;;
47401;SDS011;33155;48.370;-3.750;2022-09-03T13:41:49;3.05;;;1.23;;
47401;SDS011;33155;48.370;-3.750;2022-09-03T13:44:28;2.35;;;1.30;;
47401;SDS011;33155;48.370;-3.750;2022-09-03T13:47:01;2.53;;;1.30;;
47401;SDS011;33155;48.370;-3.750;2022-09-03T13:52:37;3.70;;;1.40;;
47401;SDS011;33155;48.370;-3.750;2022-09-03T14:01:34;2.92;;;1.60;;
47401;SDS011;33155;48.370;-3.750;2022-09-03T14:03:57;2.03;;;1.33;;
47401;SDS011;33155;48.370;-3.750;2022-09-03T14:20:11;1.70;;;1.05;;
47401;SDS011;33155;48.370;-3.750;2022-09-03T14:22:43;4.47;;;1.30;;
47401;SDS011;33155;48.370;-3.750;2022-09-03T14:25:14;3.60;;;1.33;;
47401;SDS011;33155;48.370;-3.750;2022-09-03T14:27:41;3.72;;;1.20;;
47401;SDS011;33155;48.370;-3.750;2022-09-03T14:30:17;2.42;;;1.10;;
47401;SDS011;33155;48.370;-3.750;2022-09-03T14:38:28;3.23;;;1.53;;
47401;SDS011;33155;48.370;-3.750;2022-09-03T14:41:03;3.47;;;1.35;;
47401;SDS011;33155;48.370;-3.750;2022-09-03T14:46:14;4.55;;;1.75;;
47401;SDS011;33155;48.370;-3.750;2022-09-03T15:05:49;2.20;;;1.20;;
47401;SDS011;33155;48.370;-3.750;2022-09-03T15:10:51;3.30;;;1.30;;
47401;SDS011;33155;48.370;-3.750;2022-09-03T15:13:28;3.47;;;1.45;;
47401;SDS011;33155;48.370;-3.750;2022-09-03T15:19:00;1.65;;;1.23;;
47401;SDS011;33155;48.370;-3.750;2022-09-03T15:24:48;2.53;;;1.38;;
47401;SDS011;33155;48.370;-3.750;2022-09-03T15:38:00;2.10;;;1.27;;
47401;SDS011;33155;48.370;-3.750;2022-09-03T15:40:30;1.92;;;1.02;;
47401;SDS011;33155;48.370;-3.750;2022-09-03T15:43:08;4.85;;;1.42;;
47401;SDS011;33155;48.370;-3.750;2022-09-03T15:48:20;3.35;;;1.50;;
47401;SDS011;33155;48.370;-3.750;2022-09-03T16:02:32;4.32;;;1.60;;
47401;SDS011;33155;48.370;-3.750;2022-09-03T16:10:31;3.28;;;1.65;;
47401;SDS011;33155;48.370;-3.750;2022-09-03T16:15:46;2.53;;;1.50;;
47401;SDS011;33155;48.370;-3.750;2022-09-03T16:18:28;2.55;;;1.30;;
47401;SDS011;33155;48.370;-3.750;2022-09-03T16:26:12;4.85;;;1.58;;
47401;SDS011;33155;48.370;-3.750;2022-09-03T16:28:47;3.17;;;1.50;;
47401;SDS011;33155;48.370;-3.750;2022-09-03T16:42:33;4.57;;;1.60;;
47401;SDS011;33155;48.370;-3.750;2022-09-03T16:45:16;5.50;;;1.60;;
47401;SDS011;33155;48.370;-3.750;2022-09-03T16:48:08;3.53;;;1.30;;
47401;SDS011;33155;48.370;-3.750;2022-09-03T17:15:03;3.72;;;1.00;;
47401;SDS011;33155;48.370;-3.750;2022-09-03T17:17:35;2.33;;;1.23;;
47401;SDS011;33155;48.370;-3.750;2022-09-03T17:20:47;4.47;;;2.40;;
47401;SDS011;33155;48.370;-3.750;2022-09-03T17:26:30;2.13;;;1.30;;
47401;SDS011;33155;48.370;-3.750;2022-09-03T17:29:12;3.63;;;1.63;;
47401;SDS011;33155;48.370;-3.750;2022-09-03T17:34:44;3.90;;;1.30;;
47401;SDS011;33155;48.370;-3.750;2022-09-03T17:43:14;5.95;;;2.22;;
47401;SDS011;33155;48.370;-3.750;2022-09-03T17:48:35;3.03;;;1.20;;
47401;SDS011;33155;48.370;-3.750;2022-09-03T17:51:57;2.85;;;1.40;;
47401;SDS011;33155;48.370;-3.750;2022-09-03T17:54:03;3.20;;;1.33;;
47401;SDS011;33155;48.370;-3.750;2022-09-03T17:56:48;1.90;;;1.25;;
47401;SDS011;33155;48.370;-3.750;2022-09-03T18:02:44;4.35;;;1.52;;
47401;SDS011;33155;48.370;-3.750;2022-09-03T18:07:29;3.33;;;1.65;;
47401;SDS011;33155;48.370;-3.750;2022-09-03T18:10:25;3.08;;;1.42;;
47401;SDS011;33155;48.370;-3.750;2022-09-03T18:18:29;2.10;;;1.10;;
47401;SDS011;33155;48.370;-3.750;2022-09-03T18:20:56;2.05;;;1.33;;
47401;SDS011;33155;48.370;-3.750;2022-09-03T18:24:03;2.40;;;1.15;;
47401;SDS011;33155;48.370;-3.750;2022-09-03T18:30:08;6.63;;;1.95;;
47401;SDS011;33155;48.370;-3.750;2022-09-03T18:32:53;5.00;;;2.40;;
47401;SDS011;33155;48.370;-3.750;2022-09-03T18:35:37;2.47;;;1.50;;
47401;SDS011;33155;48.370;-3.750;2022-09-03T18:38:25;3.72;;;1.50;;
47401;SDS011;33155;48.370;-3.750;2022-09-03T18:41:15;3.00;;;1.35;;
47401;SDS011;33155;48.370;-3.750;2022-09-03T18:47:36;4.45;;;1.63;;
47401;SDS011;33155;48.370;-3.750;2022-09-03T18:50:25;2.60;;;1.13;;
47401;SDS011;33155;48.370;-3.750;2022-09-03T18:53:35;2.83;;;1.35;;
47401;SDS011;33155;48.370;-3.750;2022-09-03T18:56:39;3.15;;;1.20;;
47401;SDS011;33155;48.370;-3.750;2022-09-03T19:11:27;2.33;;;1.38;;
47401;SDS011;33155;48.370;-3.750;2022-09-03T19:14:16;3.30;;;1.73;;
47401;SDS011;33155;48.370;-3.750;2022-09-03T19:20:26;4.82;;;1.40;;
47401;SDS011;33155;48.370;-3.750;2022-09-03T19:23:12;4.10;;;1.23;;
47401;SDS011;33155;48.370;-3.750;2022-09-03T19:25:56;3.30;;;1.40;;
47401;SDS011;33155;48.370;-3.750;2022-09-03T19:29:06;6.32;;;2.03;;
47401;SDS011;33155;48.370;-3.750;2022-09-03T19:32:02;4.00;;;1.50;;
47401;SDS011;33155;48.370;-3.750;2022-09-03T19:35:07;3.80;;;1.50;;
47401;SDS011;33155;48.370;-3.750;2022-09-03T19:38:19;3.83;;;1.48;;
47401;SDS011;33155;48.370;-3.750;2022-09-03T19:41:17;4.03;;;1.35;;
47401;SDS011;33155;48.370;-3.750;2022-09-03T19:47:43;2.45;;;1.50;;
47401;SDS011;33155;48.370;-3.750;2022-09-03T19:50:36;3.63;;;1.50;;
47401;SDS011;33155;48.370;-3.750;2022-09-03T19:53:23;3.42;;;1.75;;
47401;SDS011;33155;48.370;-3.750;2022-09-03T19:56:13;4.15;;;1.42;;
47401;SDS011;33155;48.370;-3.750;2022-09-03T19:59:03;3.80;;;1.87;;
